Jacksboro, Texas
Current Conditions -  °F | °C
As of 1:15 PM on Monday 22 Dec 2014 (Local Time) from KXBP Reporting Station
Clear Clear  
Wind Chill: 57°   Ceiling: Unl
Heat Index: 57°   Visibility: 10mi
Dew Point: 46°   Wind: 5mph
Humidity: 67%   Direction: 270°W
Pressure: 29.66"   Gusts: NA
Location:  33.22°N, 98.16°W
Report Text: KXBP 221915Z AUTO 27004KT 10SM CLR 14/08 A2966 RMK AO2 T01410080
Loading
Personal Weather Stations






























Interactive Weather Map New forecast layout! Learn more

10-Day Weather Forecast

Advertisements
Track Severe Weather on mobile